Arriola, Colorado
Current Conditions -  °F | °C
As of 2:53 AM on Saturday 01 Nov 2014 (Local Time) from KCEZ Reporting Station
Clear Clear  
Wind Chill: 57°   Ceiling: Unl
Heat Index: 57°   Visibility: 10mi
Dew Point: 38°   Wind: 24mph
Humidity: 49%   Direction: 140°SE
Pressure: 30.08"   Gusts: 35mph
Location:  37.3484°N, 108.734°W
Report Text: KCEZ 010853Z AUTO 14021G30KT 10SM CLR 14/03 A3008 RMK AO2 PK WND 14035/0754 SLP119 T01390033 57016
Loading
Personal Weather Stations






























Interactive Weather Map
Tropical Storm Tracking
New forecast layout! Learn more

10-Day Weather Forecast

Advertisements
Track Severe Weather on mobile